createdAt,value
2022-12-18T00:00:59.328Z,978.69
2022-12-18T00:01:59.198Z,978.72
2022-12-18T00:02:59.426Z,978.68
2022-12-18T00:03:59.287Z,978.71
2022-12-18T00:04:59.167Z,978.67
2022-12-18T00:05:59.154Z,978.70
2022-12-18T00:06:59.073Z,978.76
2022-12-18T00:07:59.183Z,978.76
2022-12-18T00:08:59.022Z,978.74
2022-12-18T00:09:59.252Z,978.74
2022-12-18T00:10:59.575Z,978.77
2022-12-18T00:11:59.029Z,978.80
2022-12-18T00:12:59.592Z,978.79
2022-12-18T00:13:58.980Z,978.79
2022-12-18T00:14:59.160Z,978.80
2022-12-18T00:15:59.371Z,978.82
2022-12-18T00:16:59.110Z,978.81
2022-12-18T00:17:58.939Z,978.80
2022-12-18T00:18:59.034Z,978.80
2022-12-18T00:19:58.965Z,978.82
2022-12-18T00:20:59.044Z,978.79
2022-12-18T00:21:59.119Z,978.74
2022-12-18T00:22:59.088Z,978.73
2022-12-18T00:23:58.852Z,978.71
2022-12-18T00:24:58.995Z,978.72
2022-12-18T00:25:58.858Z,978.72
2022-12-18T00:26:59.023Z,978.74
2022-12-18T00:27:58.806Z,978.74
2022-12-18T00:28:58.902Z,978.74
2022-12-18T00:29:59.132Z,978.70
2022-12-18T00:30:58.927Z,978.70
2022-12-18T00:31:58.892Z,978.69
2022-12-18T00:32:58.935Z,978.71
2022-12-18T00:33:58.744Z,978.72
2022-12-18T00:34:59.073Z,978.73
2022-12-18T00:35:58.739Z,978.77
2022-12-18T00:36:58.796Z,978.79
2022-12-18T00:37:58.713Z,978.82
2022-12-18T00:38:58.764Z,978.86
2022-12-18T00:39:58.726Z,978.89
2022-12-18T00:40:58.864Z,978.88
2022-12-18T00:41:58.800Z,978.85
2022-12-18T00:42:58.615Z,978.82
2022-12-18T00:43:58.803Z,978.81
2022-12-18T00:44:58.582Z,978.77
2022-12-18T00:45:58.811Z,978.73
2022-12-18T00:46:58.559Z,978.71
2022-12-18T00:47:58.840Z,978.70
2022-12-18T00:48:58.529Z,978.70
2022-12-18T00:49:58.757Z,978.75
2022-12-18T00:50:58.513Z,978.76
2022-12-18T00:51:58.640Z,978.75
2022-12-18T00:52:58.694Z,978.76
2022-12-18T00:53:58.599Z,978.75
2022-12-18T00:55:01.834Z,978.76
2022-12-18T00:55:58.531Z,978.76
2022-12-18T00:56:58.605Z,978.78
2022-12-18T00:57:58.474Z,978.77
2022-12-18T00:58:58.493Z,978.76
2022-12-18T00:59:58.438Z,978.79
2022-12-18T01:00:58.620Z,978.81
2022-12-18T01:01:58.796Z,978.83
2022-12-18T01:02:58.723Z,978.86
2022-12-18T01:03:58.414Z,978.90
2022-12-18T01:04:58.465Z,978.98
2022-12-18T01:05:58.653Z,978.95
2022-12-18T01:06:58.571Z,978.97
2022-12-18T01:07:58.318Z,978.95
2022-12-18T01:08:58.513Z,978.93
2022-12-18T01:09:58.301Z,978.91
2022-12-18T01:10:58.521Z,978.89
2022-12-18T01:11:58.296Z,978.92
2022-12-18T01:12:58.554Z,978.93
2022-12-18T01:13:58.295Z,978.94
2022-12-18T01:14:58.534Z,978.92
2022-12-18T01:15:58.335Z,978.92
2022-12-18T01:16:58.305Z,978.90
2022-12-18T01:17:58.392Z,978.89
2022-12-18T01:18:58.195Z,978.91
2022-12-18T01:19:58.345Z,978.89
2022-12-18T01:20:58.139Z,978.88
2022-12-18T01:21:58.368Z,978.88
2022-12-18T01:22:58.131Z,978.87
2022-12-18T01:23:58.372Z,978.89
2022-12-18T01:24:58.142Z,978.92
2022-12-18T01:25:58.213Z,978.91
2022-12-18T01:26:58.082Z,978.96
2022-12-18T01:27:58.190Z,978.95
2022-12-18T01:28:58.032Z,978.94
2022-12-18T01:29:58.252Z,978.92
2022-12-18T01:30:58.045Z,978.92
2022-12-18T01:31:58.274Z,978.86
2022-12-18T01:32:58.008Z,978.91
2022-12-18T01:33:58.457Z,978.85
2022-12-18T01:34:58.003Z,978.88
2022-12-18T01:35:58.151Z,978.87
2022-12-18T01:36:57.964Z,978.88
2022-12-18T01:37:58.067Z,978.91
2022-12-18T01:38:57.930Z,978.94
2022-12-18T01:39:58.081Z,978.96
2022-12-18T01:40:57.933Z,978.99
2022-12-18T01:41:58.087Z,979.02
2022-12-18T01:42:57.895Z,979.00
2022-12-18T01:43:58.124Z,979.00
2022-12-18T01:44:57.863Z,978.99
2022-12-18T01:45:58.142Z,979.02
2022-12-18T01:46:57.862Z,979.01
2022-12-18T01:47:58.033Z,979.01
2022-12-18T01:48:58.000Z,978.98
2022-12-18T01:49:57.863Z,978.92
2022-12-18T01:50:57.973Z,978.95
2022-12-18T01:51:57.811Z,978.95
2022-12-18T01:52:58.099Z,978.95
2022-12-18T01:53:57.789Z,978.98
2022-12-18T01:54:57.973Z,979.00
2022-12-18T01:55:57.788Z,979.02
2022-12-18T01:56:57.984Z,978.96
2022-12-18T01:57:57.765Z,978.95
2022-12-18T01:58:57.787Z,978.94
2022-12-18T01:59:57.721Z,978.94
2022-12-18T02:00:57.873Z,978.91
2022-12-18T02:01:57.938Z,978.88
2022-12-18T02:02:57.977Z,978.88
2022-12-18T02:03:57.663Z,978.92
2022-12-18T02:04:57.875Z,978.84
2022-12-18T02:05:57.648Z,978.82
2022-12-18T02:06:57.738Z,978.86
2022-12-18T02:07:57.598Z,978.84
2022-12-18T02:08:57.768Z,978.91
2022-12-18T02:09:57.596Z,978.88
2022-12-18T02:10:57.787Z,978.90
2022-12-18T02:11:57.564Z,978.94
2022-12-18T02:12:57.807Z,978.91
2022-12-18T02:13:57.523Z,978.87
2022-12-18T02:14:57.612Z,978.90
2022-12-18T02:15:57.526Z,978.88
2022-12-18T02:16:57.665Z,978.94
2022-12-18T02:17:57.481Z,978.91
2022-12-18T02:18:57.578Z,978.86
2022-12-18T02:19:57.497Z,978.87
2022-12-18T02:20:57.466Z,978.83
2022-12-18T02:21:57.528Z,978.88
2022-12-18T02:22:57.473Z,978.90
2022-12-18T02:23:57.437Z,978.95
2022-12-18T02:24:57.423Z,978.96
2022-12-18T02:25:57.498Z,979.00
2022-12-18T02:26:57.403Z,978.98
2022-12-18T02:27:57.535Z,978.97
2022-12-18T02:28:57.400Z,978.96
2022-12-18T02:29:58.763Z,978.94
2022-12-18T02:30:57.510Z,978.93
2022-12-18T02:31:57.415Z,978.91
2022-12-18T02:32:57.339Z,978.90
2022-12-18T02:33:57.426Z,978.93
2022-12-18T02:34:57.330Z,978.93
2022-12-18T02:35:57.450Z,978.96
2022-12-18T02:36:57.320Z,979.00
2022-12-18T02:37:57.444Z,979.00
2022-12-18T02:38:57.250Z,979.05
2022-12-18T02:39:57.267Z,979.10
2022-12-18T02:40:57.233Z,979.09
2022-12-18T02:41:57.263Z,979.14
2022-12-18T02:42:57.286Z,979.12
2022-12-18T02:43:57.292Z,979.13
2022-12-18T02:44:57.186Z,979.09
2022-12-18T02:45:57.273Z,979.07
2022-12-18T02:46:57.177Z,979.02
2022-12-18T02:47:57.215Z,979.06
2022-12-18T02:48:57.141Z,979.07
2022-12-18T02:49:57.225Z,979.07
2022-12-18T02:50:57.121Z,979.04
2022-12-18T02:51:57.136Z,979.06
2022-12-18T02:52:57.091Z,979.06
2022-12-18T02:53:57.286Z,979.06
2022-12-18T02:54:57.066Z,979.01
2022-12-18T02:55:57.156Z,979.02
2022-12-18T02:56:57.031Z,979.07
2022-12-18T02:57:57.105Z,979.11
2022-12-18T02:58:57.000Z,979.12
2022-12-18T02:59:57.126Z,979.07
2022-12-18T03:00:57.037Z,979.11
2022-12-18T03:01:57.228Z,979.11
2022-12-18T03:02:57.165Z,979.05
2022-12-18T03:03:57.004Z,979.05
2022-12-18T03:04:56.973Z,979.08
2022-12-18T03:05:57.022Z,979.10
2022-12-18T03:06:56.920Z,979.08
2022-12-18T03:07:56.946Z,979.12
2022-12-18T03:08:56.883Z,979.06
2022-12-18T03:09:56.950Z,979.04
2022-12-18T03:10:56.896Z,978.99
2022-12-18T03:11:56.961Z,978.96
2022-12-18T03:12:56.839Z,978.99
2022-12-18T03:13:56.906Z,978.98
2022-12-18T03:14:56.816Z,978.97
2022-12-18T03:15:56.928Z,978.98
2022-12-18T03:16:57.009Z,979.01
2022-12-18T03:17:56.775Z,979.04
2022-12-18T03:18:56.822Z,979.10
2022-12-18T03:19:56.752Z,979.07
2022-12-18T03:20:56.892Z,979.15
2022-12-18T03:21:56.709Z,979.11
2022-12-18T03:22:56.854Z,979.09
2022-12-18T03:23:56.679Z,979.09
2022-12-18T03:24:56.867Z,979.11
2022-12-18T03:25:56.668Z,979.12
2022-12-18T03:26:56.892Z,979.10
2022-12-18T03:27:56.633Z,979.11
2022-12-18T03:28:56.779Z,979.11
2022-12-18T03:29:56.596Z,979.08
2022-12-18T03:30:56.819Z,979.11
2022-12-18T03:31:56.581Z,979.09
2022-12-18T03:33:00.253Z,979.08
2022-12-18T03:33:56.557Z,979.09
2022-12-18T03:34:56.642Z,979.10
2022-12-18T03:35:56.521Z,979.11
2022-12-18T03:36:56.776Z,979.14
2022-12-18T03:37:56.511Z,979.11
2022-12-18T03:38:56.662Z,979.14
2022-12-18T03:39:56.481Z,979.13
2022-12-18T03:40:56.675Z,979.13
2022-12-18T03:41:56.457Z,979.14
2022-12-18T03:42:56.738Z,979.15
2022-12-18T03:43:56.422Z,979.14
2022-12-18T03:44:56.704Z,979.16
2022-12-18T03:45:56.458Z,979.16
2022-12-18T03:46:56.530Z,979.11
2022-12-18T03:47:56.510Z,979.10
2022-12-18T03:48:56.416Z,979.11
2022-12-18T03:49:56.530Z,979.09
2022-12-18T03:50:56.421Z,979.10
2022-12-18T03:51:56.427Z,979.09
2022-12-18T03:52:56.346Z,979.17
2022-12-18T03:53:56.598Z,979.19
2022-12-18T03:54:56.326Z,979.19
2022-12-18T03:55:56.348Z,979.17
2022-12-18T03:56:56.283Z,979.16
2022-12-18T03:57:56.411Z,979.12
2022-12-18T03:58:56.269Z,979.07
2022-12-18T03:59:56.419Z,979.07
2022-12-18T04:00:56.237Z,979.04
2022-12-18T04:01:56.500Z,979.06
2022-12-18T04:02:56.213Z,979.08
2022-12-18T04:03:56.355Z,979.09
2022-12-18T04:04:56.195Z,979.09
2022-12-18T04:05:56.416Z,979.08
2022-12-18T04:06:56.180Z,979.08
2022-12-18T04:07:56.221Z,979.06
2022-12-18T04:08:56.142Z,979.04
2022-12-18T04:09:56.288Z,979.04
2022-12-18T04:10:56.126Z,979.06
2022-12-18T04:11:56.252Z,979.01
2022-12-18T04:12:56.097Z,979.00
2022-12-18T04:13:56.278Z,979.02
2022-12-18T04:14:56.104Z,979.02
2022-12-18T04:15:56.278Z,979.09
2022-12-18T04:16:56.049Z,979.13
2022-12-18T04:17:56.089Z,979.12
2022-12-18T04:18:56.135Z,979.13
2022-12-18T04:19:56.027Z,979.11
2022-12-18T04:20:56.143Z,979.17
2022-12-18T04:21:55.973Z,979.14
2022-12-18T04:22:56.043Z,979.17
2022-12-18T04:23:55.939Z,979.21
2022-12-18T04:24:56.051Z,979.18
2022-12-18T04:25:55.931Z,979.20
2022-12-18T04:26:56.074Z,979.25
2022-12-18T04:27:55.912Z,979.17
2022-12-18T04:28:56.083Z,979.22
2022-12-18T04:29:55.867Z,979.18
2022-12-18T04:30:56.060Z,979.15
2022-12-18T04:31:55.873Z,979.14
2022-12-18T04:32:56.012Z,979.08
2022-12-18T04:33:55.813Z,979.15
2022-12-18T04:34:55.918Z,979.15
2022-12-18T04:35:55.790Z,979.20
2022-12-18T04:36:56.001Z,979.23
2022-12-18T04:37:55.826Z,979.25
2022-12-18T04:38:55.850Z,979.24
2022-12-18T04:39:55.750Z,979.22
2022-12-18T04:40:55.853Z,979.20
2022-12-18T04:41:55.719Z,979.19
2022-12-18T04:42:55.994Z,979.22
2022-12-18T04:43:55.691Z,979.25
2022-12-18T04:44:55.793Z,979.24
2022-12-18T04:45:55.672Z,979.31
2022-12-18T04:46:55.853Z,979.35
2022-12-18T04:47:55.641Z,979.34
2022-12-18T04:48:55.771Z,979.25
2022-12-18T04:49:55.707Z,979.23
2022-12-18T04:50:55.625Z,979.18
2022-12-18T04:51:55.713Z,979.16
2022-12-18T04:52:55.609Z,979.16
2022-12-18T04:53:55.790Z,979.16
2022-12-18T04:54:55.588Z,979.18
2022-12-18T04:55:55.732Z,979.14
2022-12-18T04:56:55.559Z,979.14
2022-12-18T04:57:55.663Z,979.09
2022-12-18T04:58:55.572Z,979.04
2022-12-18T04:59:55.680Z,979.01
2022-12-18T05:00:55.529Z,978.96
2022-12-18T05:01:55.838Z,978.91
2022-12-18T05:02:55.694Z,978.85
2022-12-18T05:03:55.786Z,978.80
2022-12-18T05:04:55.479Z,978.88
2022-12-18T05:05:55.520Z,978.99
2022-12-18T05:06:55.451Z,979.03
2022-12-18T05:07:55.542Z,979.03
2022-12-18T05:08:55.437Z,979.06
2022-12-18T05:09:55.503Z,979.01
2022-12-18T05:10:55.400Z,979.02
2022-12-18T05:11:55.458Z,979.00
2022-12-18T05:12:55.378Z,979.00
2022-12-18T05:13:55.467Z,979.06
2022-12-18T05:14:55.353Z,979.07
2022-12-18T05:15:55.485Z,979.07
2022-12-18T05:16:59.318Z,979.07
2022-12-18T05:17:55.281Z,979.04
2022-12-18T05:18:55.434Z,979.01
2022-12-18T05:19:55.256Z,979.05
2022-12-18T05:20:55.484Z,979.06
2022-12-18T05:22:01.397Z,979.00
2022-12-18T05:22:55.343Z,979.01
2022-12-18T05:23:55.215Z,978.99
2022-12-18T05:24:55.365Z,978.96
2022-12-18T05:25:55.174Z,978.98
2022-12-18T05:26:55.432Z,979.03
2022-12-18T05:27:55.158Z,979.04
2022-12-18T05:28:55.396Z,979.02
2022-12-18T05:29:55.122Z,978.98
2022-12-18T05:30:55.503Z,978.96
2022-12-18T05:31:55.221Z,978.92
2022-12-18T05:32:55.220Z,978.97
2022-12-18T05:33:55.091Z,978.97
2022-12-18T05:34:55.242Z,979.03
2022-12-18T05:35:55.070Z,979.04
2022-12-18T05:36:55.289Z,979.07
2022-12-18T05:37:55.027Z,979.05
2022-12-18T05:38:55.247Z,979.03
2022-12-18T05:39:55.009Z,979.05
2022-12-18T05:40:55.170Z,979.05
2022-12-18T05:41:55.082Z,979.05
2022-12-18T05:42:54.990Z,979.11
2022-12-18T05:43:55.074Z,979.11
2022-12-18T05:44:54.977Z,979.09
2022-12-18T05:45:55.123Z,979.11
2022-12-18T05:46:55.181Z,979.10
2022-12-18T05:47:54.939Z,979.10
2022-12-18T05:48:55.122Z,979.11
2022-12-18T05:49:54.884Z,979.11
2022-12-18T05:50:55.039Z,979.15
2022-12-18T05:51:54.863Z,979.16
2022-12-18T05:52:54.962Z,979.11
2022-12-18T05:53:54.866Z,979.10
2022-12-18T05:54:55.004Z,979.11
2022-12-18T05:55:54.801Z,979.08
2022-12-18T05:56:54.864Z,979.14
2022-12-18T05:57:54.828Z,979.12
2022-12-18T05:58:54.882Z,979.06
2022-12-18T05:59:54.788Z,979.11
2022-12-18T06:00:54.887Z,979.06
2022-12-18T06:01:54.837Z,979.01
2022-12-18T06:02:55.052Z,979.00
2022-12-18T06:03:54.805Z,978.99
2022-12-18T06:04:54.827Z,979.04
2022-12-18T06:05:54.694Z,979.01
2022-12-18T06:06:54.832Z,979.09
2022-12-18T06:07:54.823Z,979.11
2022-12-18T06:08:54.709Z,979.10
2022-12-18T06:09:54.733Z,979.11
2022-12-18T06:10:54.675Z,979.10
2022-12-18T06:11:54.735Z,979.12
2022-12-18T06:12:54.794Z,979.08
2022-12-18T06:13:58.180Z,979.04
2022-12-18T06:14:54.833Z,979.06
2022-12-18T06:15:54.621Z,979.10
2022-12-18T06:16:54.705Z,979.14
2022-12-18T06:17:54.728Z,979.17
2022-12-18T06:18:54.555Z,979.18
2022-12-18T06:19:54.601Z,979.19
2022-12-18T06:20:56.143Z,979.23
2022-12-18T06:21:54.662Z,979.22
2022-12-18T06:22:54.474Z,979.21
2022-12-18T06:23:54.648Z,979.23
2022-12-18T06:24:54.456Z,979.23
2022-12-18T06:25:54.605Z,979.23
2022-12-18T06:26:54.435Z,979.20
2022-12-18T06:27:54.463Z,979.21
2022-12-18T06:28:54.399Z,979.21
2022-12-18T06:29:54.639Z,979.19
2022-12-18T06:30:54.447Z,979.24
2022-12-18T06:31:54.755Z,979.25
2022-12-18T06:32:56.549Z,979.29
2022-12-18T06:33:54.580Z,979.30
2022-12-18T06:34:54.345Z,979.32
2022-12-18T06:36:00.752Z,979.33
2022-12-18T06:36:54.371Z,979.36
2022-12-18T06:37:54.511Z,979.40
2022-12-18T06:38:54.368Z,979.41
2022-12-18T06:39:54.309Z,979.51
2022-12-18T06:40:54.332Z,979.50
2022-12-18T06:41:54.292Z,979.52
2022-12-18T06:42:54.384Z,979.49
2022-12-18T06:43:59.426Z,979.52
2022-12-18T06:44:54.246Z,979.55
2022-12-18T06:45:54.366Z,979.59
2022-12-18T06:46:54.189Z,979.57
2022-12-18T06:47:54.299Z,979.57
2022-12-18T06:48:54.286Z,979.58
2022-12-18T06:49:54.190Z,979.58
2022-12-18T06:50:54.208Z,979.55
2022-12-18T06:51:54.290Z,979.54
2022-12-18T06:52:54.357Z,979.54
2022-12-18T06:53:54.179Z,979.56
2022-12-18T06:54:54.393Z,979.57
2022-12-18T06:55:54.426Z,979.59
2022-12-18T06:56:54.552Z,979.67
2022-12-18T06:57:54.251Z,979.67
2022-12-18T06:58:54.629Z,979.67
2022-12-18T06:59:54.128Z,979.69
2022-12-18T07:00:54.257Z,979.69
2022-12-18T07:01:54.443Z,979.67
2022-12-18T07:02:54.279Z,979.71
2022-12-18T07:03:54.139Z,979.69
2022-12-18T07:04:54.141Z,979.76
2022-12-18T07:05:54.000Z,979.74
2022-12-18T07:06:54.000Z,979.74
2022-12-18T07:07:53.989Z,979.76
2022-12-18T07:08:54.034Z,979.77
2022-12-18T07:09:53.951Z,979.73
2022-12-18T07:10:56.269Z,979.73
2022-12-18T07:11:53.965Z,979.77
2022-12-18T07:12:54.095Z,979.78
2022-12-18T07:13:53.918Z,979.78
2022-12-18T07:14:53.967Z,979.79
2022-12-18T07:15:53.868Z,979.81
2022-12-18T07:16:54.003Z,979.84
2022-12-18T07:17:53.852Z,979.87
2022-12-18T07:18:53.893Z,979.88
2022-12-18T07:19:53.844Z,979.85
2022-12-18T07:20:53.903Z,979.97
2022-12-18T07:21:53.823Z,979.95
2022-12-18T07:22:56.385Z,979.94
2022-12-18T07:23:53.796Z,979.93
2022-12-18T07:24:53.825Z,979.91
2022-12-18T07:25:53.753Z,979.93
2022-12-18T07:26:53.876Z,979.88
2022-12-18T07:27:53.915Z,979.96
2022-12-18T07:28:53.870Z,979.94
2022-12-18T07:29:54.207Z,979.93
2022-12-18T07:30:53.768Z,979.97
2022-12-18T07:31:53.801Z,979.91
2022-12-18T07:32:53.886Z,979.88
2022-12-18T07:33:53.642Z,979.95
2022-12-18T07:34:53.793Z,980.00
2022-12-18T07:35:53.713Z,980.00
2022-12-18T07:36:53.639Z,979.92
2022-12-18T07:37:53.745Z,979.92
2022-12-18T07:38:53.598Z,979.91
2022-12-18T07:39:53.746Z,979.89
2022-12-18T07:40:53.822Z,979.84
2022-12-18T07:41:53.572Z,979.85
2022-12-18T07:42:53.791Z,979.81
2022-12-18T07:43:53.561Z,979.85
2022-12-18T07:44:53.663Z,979.83
2022-12-18T07:45:53.539Z,979.86
2022-12-18T07:46:53.585Z,979.92
2022-12-18T07:47:53.530Z,979.88
2022-12-18T07:48:53.685Z,979.87
2022-12-18T07:49:53.482Z,979.87
2022-12-18T07:50:53.604Z,979.88
2022-12-18T07:51:53.444Z,979.93
2022-12-18T07:52:53.568Z,979.84
2022-12-18T07:53:53.440Z,979.84
2022-12-18T07:54:53.532Z,979.83
2022-12-18T07:56:25.572Z,979.80
2022-12-18T07:56:54.287Z,979.86
2022-12-18T07:57:59.220Z,979.85
2022-12-18T07:58:53.586Z,979.87
2022-12-18T07:59:53.495Z,979.88
2022-12-18T08:00:53.505Z,979.83
2022-12-18T08:01:53.985Z,979.88
2022-12-18T08:02:53.498Z,979.86
2022-12-18T08:03:53.720Z,979.91
2022-12-18T08:04:53.337Z,979.86
2022-12-18T08:05:53.430Z,979.93
2022-12-18T08:06:53.466Z,979.90
2022-12-18T08:07:53.270Z,979.88
2022-12-18T08:08:53.319Z,979.90
2022-12-18T08:09:53.272Z,979.88
2022-12-18T08:10:53.325Z,979.90
2022-12-18T08:11:54.489Z,979.89
2022-12-18T08:12:53.190Z,979.91
2022-12-18T08:13:53.402Z,979.92
2022-12-18T08:14:53.197Z,979.90
2022-12-18T08:15:53.308Z,979.92
2022-12-18T08:16:53.446Z,979.94
2022-12-18T08:17:53.302Z,979.96
2022-12-18T08:18:53.110Z,979.95
2022-12-18T08:19:53.347Z,979.96
2022-12-18T08:20:53.086Z,980.00
2022-12-18T08:21:53.375Z,980.04
2022-12-18T08:22:53.062Z,980.00
2022-12-18T08:23:53.226Z,980.03
2022-12-18T08:24:53.096Z,980.04
2022-12-18T08:25:53.188Z,980.05
2022-12-18T08:27:20.864Z,980.06
2022-12-18T08:27:53.098Z,980.01
2022-12-18T08:28:53.172Z,979.99
2022-12-18T08:29:53.036Z,979.96
2022-12-18T08:30:53.165Z,980.02
2022-12-18T08:31:59.750Z,980.02
2022-12-18T08:32:53.081Z,980.03
2022-12-18T08:33:53.032Z,980.00
2022-12-18T08:34:53.006Z,980.01
2022-12-18T08:35:52.929Z,980.00
2022-12-18T08:36:53.038Z,980.00
2022-12-18T08:37:53.052Z,980.02
2022-12-18T08:38:52.938Z,980.00
2022-12-18T08:39:53.009Z,980.04
2022-12-18T08:40:52.845Z,980.02
2022-12-18T08:41:52.963Z,980.05
2022-12-18T08:42:52.832Z,980.01
2022-12-18T08:43:52.847Z,980.03
2022-12-18T08:44:52.912Z,980.05
2022-12-18T08:45:52.887Z,980.06
2022-12-18T08:46:52.876Z,980.08
2022-12-18T08:47:52.799Z,980.14
2022-12-18T08:48:53.205Z,980.11
2022-12-18T08:49:52.799Z,980.13
2022-12-18T08:50:52.808Z,980.07
2022-12-18T08:51:52.762Z,980.08
2022-12-18T08:52:52.904Z,980.05
2022-12-18T08:53:52.718Z,980.04
2022-12-18T08:54:53.002Z,980.04
2022-12-18T08:55:52.716Z,979.97
2022-12-18T08:56:52.845Z,979.94
2022-12-18T08:57:52.805Z,979.90
2022-12-18T08:58:52.747Z,979.89
2022-12-18T08:59:52.687Z,979.90
2022-12-18T09:00:52.868Z,979.91
2022-12-18T09:01:52.798Z,979.87
2022-12-18T09:02:52.821Z,979.86
2022-12-18T09:03:53.080Z,979.88
2022-12-18T09:04:57.283Z,979.82
2022-12-18T09:05:52.628Z,979.82
2022-12-18T09:06:52.695Z,979.83
2022-12-18T09:07:52.583Z,979.83
2022-12-18T09:08:52.639Z,979.77
2022-12-18T09:09:52.546Z,979.81
2022-12-18T09:10:52.683Z,979.84
2022-12-18T09:11:52.566Z,979.81
2022-12-18T09:12:52.650Z,979.86
2022-12-18T09:13:52.884Z,979.84
2022-12-18T09:14:52.494Z,979.88
2022-12-18T09:15:52.688Z,979.86
2022-12-18T09:16:52.564Z,979.88
2022-12-18T09:17:53.088Z,979.87
2022-12-18T09:18:52.408Z,979.82
2022-12-18T09:19:52.511Z,979.79
2022-12-18T09:20:52.369Z,979.72
2022-12-18T09:21:52.609Z,979.72
2022-12-18T09:22:52.655Z,979.70
2022-12-18T09:23:52.436Z,979.71
2022-12-18T09:24:52.493Z,979.69
2022-12-18T09:25:52.472Z,979.73
2022-12-18T09:26:57.408Z,979.71
2022-12-18T09:27:52.334Z,979.69
2022-12-18T09:28:53.319Z,979.70
2022-12-18T09:29:54.275Z,979.61
2022-12-18T09:30:52.848Z,979.64
2022-12-18T09:31:53.058Z,979.64
2022-12-18T09:32:52.666Z,979.61
2022-12-18T09:33:52.447Z,979.67
2022-12-18T09:34:52.425Z,979.67
2022-12-18T09:35:52.695Z,979.69
2022-12-18T09:36:52.500Z,979.69
2022-12-18T09:37:52.214Z,979.59
2022-12-18T09:38:52.335Z,979.60
2022-12-18T09:39:52.549Z,979.54
2022-12-18T09:40:52.197Z,979.52
2022-12-18T09:41:52.685Z,979.58
2022-12-18T09:42:52.379Z,979.58
2022-12-18T09:43:52.625Z,979.59
2022-12-18T09:44:52.575Z,979.57
2022-12-18T09:45:52.197Z,979.59
2022-12-18T09:46:52.665Z,979.57
2022-12-18T09:47:52.216Z,979.63
2022-12-18T09:48:52.729Z,979.58
2022-12-18T09:49:52.120Z,979.55
2022-12-18T09:50:52.310Z,979.54
2022-12-18T09:51:52.267Z,979.49
2022-12-18T09:52:52.361Z,979.49
2022-12-18T09:53:52.107Z,979.46
2022-12-18T09:54:52.077Z,979.57
2022-12-18T09:55:52.554Z,979.65
2022-12-18T09:56:52.398Z,979.62
2022-12-18T09:57:52.535Z,979.63
2022-12-18T09:58:52.059Z,979.61
2022-12-18T09:59:52.023Z,979.60
2022-12-18T10:00:52.014Z,979.62
2022-12-18T10:01:52.106Z,979.64
2022-12-18T10:02:52.222Z,979.58
2022-12-18T10:03:51.890Z,979.54
2022-12-18T10:04:52.040Z,979.52
2022-12-18T10:05:52.156Z,979.57
2022-12-18T10:06:51.850Z,979.60
2022-12-18T10:07:52.634Z,979.55
2022-12-18T10:08:52.330Z,979.57
2022-12-18T10:09:52.158Z,979.64
2022-12-18T10:10:51.992Z,979.61
2022-12-18T10:11:51.906Z,979.54
2022-12-18T10:12:51.836Z,979.56
2022-12-18T10:13:51.796Z,979.59
2022-12-18T10:14:51.868Z,979.54
2022-12-18T10:15:52.027Z,979.49
2022-12-18T10:16:51.860Z,979.58
2022-12-18T10:17:51.721Z,979.54
2022-12-18T10:18:52.383Z,979.46
2022-12-18T10:19:51.684Z,979.45
2022-12-18T10:20:51.793Z,979.48
2022-12-18T10:21:51.663Z,979.45
2022-12-18T10:22:51.820Z,979.44
2022-12-18T10:23:51.741Z,979.45
2022-12-18T10:24:51.956Z,979.41
2022-12-18T10:25:51.603Z,979.42
2022-12-18T10:26:51.762Z,979.45
2022-12-18T10:27:51.553Z,979.36
2022-12-18T10:28:51.681Z,979.41
2022-12-18T10:29:51.579Z,979.41
2022-12-18T10:30:52.879Z,979.33
2022-12-18T10:31:51.699Z,979.26
2022-12-18T10:32:51.875Z,979.33
2022-12-18T10:33:51.821Z,979.32
2022-12-18T10:34:56.690Z,979.28
2022-12-18T10:35:51.706Z,979.34
2022-12-18T10:36:51.684Z,979.33
2022-12-18T10:37:51.539Z,979.30
2022-12-18T10:38:53.046Z,979.32
2022-12-18T10:39:51.430Z,979.30
2022-12-18T10:40:51.543Z,979.38
2022-12-18T10:41:51.384Z,979.39
2022-12-18T10:42:51.762Z,979.38
2022-12-18T10:43:51.494Z,979.36
2022-12-18T10:44:51.767Z,979.32
2022-12-18T10:45:51.689Z,979.32
2022-12-18T10:46:51.829Z,979.34
2022-12-18T10:47:51.355Z,979.37
2022-12-18T10:48:51.906Z,979.38
2022-12-18T10:49:51.629Z,979.34
2022-12-18T10:51:51.397Z,979.27
2022-12-18T10:52:51.318Z,979.26
2022-12-18T10:53:51.289Z,979.20
2022-12-18T10:54:51.213Z,979.19
2022-12-18T10:55:51.441Z,979.18
2022-12-18T10:56:51.719Z,979.16
2022-12-18T10:57:51.199Z,979.25
2022-12-18T10:58:51.280Z,979.23
2022-12-18T10:59:51.165Z,979.26
2022-12-18T11:00:51.283Z,979.24
2022-12-18T11:01:51.367Z,979.19
2022-12-18T11:02:51.549Z,979.21
2022-12-18T11:03:51.148Z,979.14
2022-12-18T11:04:51.306Z,979.12
2022-12-18T11:05:51.069Z,979.04
2022-12-18T11:06:51.203Z,979.05
2022-12-18T11:07:51.049Z,979.08
2022-12-18T11:08:51.145Z,979.08
2022-12-18T11:09:51.008Z,979.03
2022-12-18T11:10:51.193Z,979.02
2022-12-18T11:11:51.018Z,979.04
2022-12-18T11:12:51.456Z,979.05
2022-12-18T11:13:51.422Z,978.97
2022-12-18T11:14:52.431Z,978.95
2022-12-18T11:15:51.799Z,978.96
2022-12-18T11:17:51.434Z,978.88
2022-12-18T11:18:51.329Z,978.93
2022-12-18T11:19:53.122Z,978.90
2022-12-18T11:20:56.978Z,978.97
2022-12-18T11:21:52.668Z,978.90
2022-12-18T11:22:52.864Z,978.94
2022-12-18T11:23:51.813Z,978.87
2022-12-18T11:25:22.527Z,978.80
2022-12-18T11:25:51.613Z,978.80
2022-12-18T11:26:56.272Z,978.85
2022-12-18T11:27:52.352Z,978.83
2022-12-18T11:28:51.214Z,978.86
2022-12-18T11:29:51.470Z,978.83
2022-12-18T11:30:51.368Z,978.76
2022-12-18T11:31:51.370Z,978.74
2022-12-18T11:32:51.839Z,978.70
2022-12-18T11:34:19.768Z,978.70
2022-12-18T11:34:54.709Z,978.67
2022-12-18T11:35:51.666Z,978.67
2022-12-18T11:36:51.904Z,978.59
2022-12-18T11:37:51.305Z,978.64
2022-12-18T11:38:51.933Z,978.59
2022-12-18T11:39:51.933Z,978.60
2022-12-18T11:40:51.030Z,978.61
2022-12-18T11:41:50.804Z,978.59
2022-12-18T11:42:51.102Z,978.54
2022-12-18T11:43:50.933Z,978.54
2022-12-18T11:44:51.855Z,978.52
2022-12-18T11:45:51.125Z,978.52
2022-12-18T11:46:51.208Z,978.55
2022-12-18T11:47:51.455Z,978.50
2022-12-18T11:48:50.918Z,978.50
2022-12-18T11:49:51.628Z,978.51
2022-12-18T11:50:51.959Z,978.51
2022-12-18T11:51:51.122Z,978.50
2022-12-18T11:52:56.077Z,978.55
2022-12-18T11:53:50.851Z,978.57
2022-12-18T11:54:50.635Z,978.59
2022-12-18T11:55:50.948Z,978.54
2022-12-18T11:56:50.814Z,978.58
2022-12-18T11:57:51.729Z,978.53
2022-12-18T11:58:51.663Z,978.52
2022-12-18T11:59:50.946Z,978.48
2022-12-18T12:00:50.871Z,978.46
2022-12-18T12:01:50.749Z,978.45
2022-12-18T12:02:51.155Z,978.45
2022-12-18T12:03:51.025Z,978.47
2022-12-18T12:04:51.861Z,978.49
2022-12-18T12:05:51.112Z,978.46
2022-12-18T12:06:50.619Z,978.48
2022-12-18T12:07:51.681Z,978.51
2022-12-18T12:08:51.350Z,978.48
2022-12-18T12:09:50.700Z,978.45
2022-12-18T12:10:50.756Z,978.44
2022-12-18T12:11:50.893Z,978.48
2022-12-18T12:12:51.468Z,978.45
2022-12-18T12:13:50.843Z,978.41
2022-12-18T12:14:51.363Z,978.34
2022-12-18T12:15:51.137Z,978.33
2022-12-18T12:16:51.038Z,978.31
2022-12-18T12:17:50.696Z,978.34
2022-12-18T12:18:50.912Z,978.31
2022-12-18T12:19:50.625Z,978.35
2022-12-18T12:20:50.531Z,978.33
2022-12-18T12:21:50.479Z,978.35
2022-12-18T12:22:50.339Z,978.34
2022-12-18T12:23:50.140Z,978.31
2022-12-18T12:24:50.356Z,978.31
2022-12-18T12:25:50.284Z,978.32
2022-12-18T12:26:51.066Z,978.25
2022-12-18T12:27:50.201Z,978.23
2022-12-18T12:28:50.445Z,978.24
2022-12-18T12:29:50.927Z,978.21
2022-12-18T12:30:50.508Z,978.21